Time;durP1;ratioP1;P1;durP2;ratioP2;P2;SDS_P1;SDS_P2;PMS_P1;PMS_P2;Temp;Humidity;BMP_temperature;BMP_pressure;BME280_temperature;BME280_humidity;BME280_pressure;Samples;Min_cycle;Max_cycle;Signal;HPM_P1;HPM_P2
2022/08/24 00:01:09;;;;;;;22.43;15.77;;;;;;;20.55;100.00;98847.63;4898078;29;20213;-84
2022/08/24 00:03:36;;;;;;;21.73;15.17;;;;;;;20.44;100.00;98839.97;4897917;29;20182;-83
2022/08/24 00:06:02;;;;;;;22.63;15.77;;;;;;;19.79;100.00;98759.69;4897323;29;20159;-84
2022/08/24 00:08:30;;;;;;;26.80;15.97;;;;;;;20.26;100.00;98829.78;4897705;29;20167;-83
2022/08/24 00:10:55;;;;;;;23.63;15.97;;;;;;;19.72;100.00;98683.53;4897239;29;20205;-83
2022/08/24 00:13:21;;;;;;;23.97;16.00;;;;;;;20.41;100.00;98809.13;4897600;29;20209;-83
2022/08/24 00:15:46;;;;;;;26.23;15.73;;;;;;;20.79;100.00;98854.38;4897854;29;20561;-84
2022/08/24 00:18:12;;;;;;;25.07;15.80;;;;;;;20.77;100.00;98858.66;4897634;29;20195;-83
2022/08/24 00:20:38;;;;;;;25.63;15.87;;;;;;;19.66;100.00;98675.84;4900114;29;20171;-82
2022/08/24 00:23:04;;;;;;;22.53;14.93;;;;;;;18.76;100.00;98552.91;4905144;29;20163;-84
2022/08/24 00:25:30;;;;;;;20.93;14.90;;;;;;;20.56;100.00;98845.06;4898023;29;20174;-83
2022/08/24 00:27:56;;;;;;;25.67;15.20;;;;;;;17.81;100.00;98368.59;4880596;29;20751;-84
2022/08/24 00:30:22;;;;;;;25.17;15.70;;;;;;;19.71;100.00;98669.81;4897053;29;20170;-84
2022/08/24 00:32:48;;;;;;;22.70;14.93;;;;;;;20.60;100.00;98825.34;4897194;29;20473;-84
2022/08/24 00:35:17;;;;;;;22.77;14.70;;;;;;;19.36;100.00;98617.72;4897255;29;20170;-84
2022/08/24 00:37:44;;;;;;;22.10;14.30;;;;;;;17.19;100.00;98270.56;4897389;29;20287;-83
2022/08/24 00:40:15;;;;;;;26.97;14.23;;;;;;;19.33;100.00;98626.31;4897108;29;20648;-84
2022/08/24 00:42:40;;;;;;;23.73;13.87;;;;;;;17.07;100.00;98231.34;4896474;29;21097;-83
2022/08/24 00:45:09;;;;;;;22.07;14.40;;;;;;;17.84;100.00;98373.72;4897116;29;20178;-83
2022/08/24 00:48:06;;;;;;;22.53;14.20;;;;;;;17.42;100.00;98291.84;4880278;29;20218;-83
2022/08/24 00:50:40;;;;;;;19.00;13.97;;;;;;;20.57;100.00;98849.31;4802593;29;20209;-83
2022/08/24 00:53:11;;;;;;;22.07;14.03;;;;;;;18.51;100.00;98497.44;4785136;30;20220;-84
2022/08/24 00:55:44;;;;;;;22.87;13.60;;;;;;;18.64;100.00;98511.94;4787159;29;20199;-85
2022/08/24 00:58:19;;;;;;;21.20;13.77;;;;;;;19.68;100.00;98715.19;4802972;29;20252;-84
2022/08/24 01:00:48;;;;;;;21.40;13.73;;;;;;;18.35;100.00;98454.72;4801298;29;20685;-84
2022/08/24 01:03:14;;;;;;;21.00;13.53;;;;;;;18.10;100.00;98420.59;4784820;30;20275;-84
2022/08/24 01:05:40;;;;;;;25.07;13.73;;;;;;;20.17;100.00;98746.66;4785132;30;20695;-83
2022/08/24 01:08:08;;;;;;;20.27;13.70;;;;;;;20.56;100.00;98850.22;4784592;30;20194;-82
2022/08/24 01:10:42;;;;;;;21.37;14.00;;;;;;;20.62;100.00;98848.47;4784436;29;20190;-83
2022/08/24 01:13:10;;;;;;;19.53;13.40;;;;;;;17.77;100.00;98415.56;4784695;30;20608;-81
2022/08/24 01:15:39;;;;;;;22.90;13.43;;;;;;;20.49;100.00;98847.69;4784464;30;20298;-82
2022/08/24 01:21:14;;;;;;;21.13;13.67;;;;;;;20.81;100.00;98857.78;4783963;30;20285;-82
2022/08/24 01:23:41;;;;;;;22.07;13.67;;;;;;;20.68;100.00;98856.16;4784591;30;20262;-82
2022/08/24 01:26:11;;;;;;;21.93;14.10;;;;;;;20.76;100.00;98857.81;4786370;29;20297;-81
2022/08/24 01:28:38;;;;;;;19.73;14.17;;;;;;;19.90;100.00;98727.09;4838532;29;20184;-82
2022/08/24 01:31:04;;;;;;;20.20;14.10;;;;;;;20.78;100.00;98865.50;4838066;29;20209;-82
2022/08/24 01:33:31;;;;;;;22.17;13.90;;;;;;;19.20;100.00;98601.50;4838443;29;20187;-81
2022/08/24 01:36:18;;;;;;;20.53;13.33;;;;;;;20.84;100.00;98888.66;4838380;29;20165;-83
2022/08/24 01:38:45;;;;;;;20.43;13.93;;;;;;;18.95;100.00;98617.00;4838464;29;20204;-83
2022/08/24 01:41:11;;;;;;;22.80;14.53;;;;;;;19.73;100.00;98762.25;4837708;29;20229;-82
2022/08/24 01:43:36;;;;;;;21.43;13.87;;;;;;;17.82;100.00;98416.41;4838348;29;20196;-81
2022/08/24 01:46:02;;;;;;;21.43;14.47;;;;;;;20.10;100.00;98792.13;4838287;29;20191;-82
2022/08/24 01:48:27;;;;;;;20.20;13.60;;;;;;;17.81;100.00;98440.28;4823617;29;20184;-83
2022/08/24 01:50:53;;;;;;;20.17;14.30;;;;;;;19.01;100.00;98638.34;4840292;29;20223;-84
2022/08/24 01:53:19;;;;;;;21.20;14.13;;;;;;;17.88;100.00;98490.63;4839704;29;20176;-84
2022/08/24 01:55:44;;;;;;;23.23;14.93;;;;;;;19.99;100.00;98871.81;4845845;29;20176;-83
2022/08/24 01:58:11;;;;;;;21.97;15.50;;;;;;;19.10;100.00;98705.03;4895864;29;20234;-83
2022/08/24 02:00:37;;;;;;;23.70;14.80;;;;;;;19.00;100.00;98659.75;4895633;29;20186;-83
2022/08/24 02:03:03;;;;;;;21.50;14.63;;;;;;;19.35;100.00;98706.72;4895797;29;20359;-83
2022/08/24 02:05:28;;;;;;;21.77;14.47;;;;;;;18.23;100.00;98544.44;4895905;29;20245;-83
2022/08/24 02:07:57;;;;;;;21.97;14.30;;;;;;;18.07;100.00;98484.69;4895997;29;20169;-84
2022/08/24 02:10:23;;;;;;;22.87;14.73;;;;;;;19.29;100.00;98678.47;4895751;29;20186;-84
2022/08/24 02:12:56;;;;;;;21.07;14.23;;;;;;;18.45;100.00;98556.38;4895943;29;20167;-84
2022/08/24 02:15:29;;;;;;;23.00;13.90;;;;;;;19.68;100.00;98774.25;4895607;29;20670;-82
2022/08/24 02:17:54;;;;;;;22.43;14.67;;;;;;;18.27;100.00;98571.75;4895663;29;20247;-82
2022/08/24 02:20:20;;;;;;;21.13;14.87;;;;;;;18.73;100.00;98646.97;4895792;29;20210;-82
2022/08/24 02:22:47;;;;;;;22.77;14.80;;;;;;;19.49;100.00;98765.75;4896055;29;20170;-82
2022/08/24 02:25:13;;;;;;;21.67;15.07;;;;;;;17.88;100.00;98493.19;4896007;29;20699;-82
2022/08/24 02:27:39;;;;;;;23.33;14.50;;;;;;;19.83;100.00;98812.78;4895426;29;20179;-82
2022/08/24 02:30:05;;;;;;;23.33;14.07;;;;;;;19.48;100.00;98743.50;4898416;29;20167;-83
2022/08/24 02:32:30;;;;;;;21.07;14.27;;;;;;;20.28;100.00;98882.03;4899541;29;20174;-83
2022/08/24 02:34:56;;;;;;;22.57;14.37;;;;;;;19.94;100.00;98841.84;4899481;29;20170;-82
2022/08/24 02:37:21;;;;;;;22.10;14.37;;;;;;;20.22;100.00;98883.72;4899315;29;20238;-83
2022/08/24 02:39:46;;;;;;;22.93;14.83;;;;;;;18.79;100.00;98676.00;4899639;29;20195;-84
2022/08/24 02:42:13;;;;;;;23.70;15.60;;;;;;;20.10;100.00;98879.50;4899582;29;20198;-83
2022/08/24 02:44:38;;;;;;;23.70;14.77;;;;;;;19.81;100.00;98799.91;4882620;29;20270;-83
2022/08/24 02:47:04;;;;;;;23.43;15.23;;;;;;;18.84;100.00;98665.75;4899126;29;20262;-83
2022/08/24 02:49:29;;;;;;;23.93;15.60;;;;;;;20.15;100.00;98879.47;4899339;29;20167;-83
2022/08/24 02:51:55;;;;;;;27.07;15.40;;;;;;;18.27;100.00;98541.84;4898918;29;20258;-83
2022/08/24 02:54:20;;;;;;;27.27;15.40;;;;;;;19.68;100.00;98784.53;4899430;29;20283;-83
2022/08/24 02:56:47;;;;;;;23.30;15.73;;;;;;;19.34;100.00;98719.53;4898801;29;20167;-83
2022/08/24 02:59:12;;;;;;;29.40;17.27;;;;;;;19.95;100.00;98810.16;4898550;29;20222;-81
2022/08/24 03:01:38;;;;;;;27.03;17.50;;;;;;;19.42;100.00;98711.00;4898939;29;20252;-83
2022/08/24 03:04:04;;;;;;;27.73;17.40;;;;;;;20.64;100.00;98905.88;4898695;29;20170;-83
2022/08/24 03:06:30;;;;;;;27.57;17.10;;;;;;;20.57;100.00;98905.91;4898765;29;20221;-83
2022/08/24 03:08:55;;;;;;;24.07;16.00;;;;;;;20.29;100.00;98855.47;4898131;29;20159;-83
2022/08/24 03:11:21;;;;;;;24.33;16.23;;;;;;;19.42;100.00;98710.13;4899067;29;20205;-82
2022/08/24 03:13:46;;;;;;;27.73;16.67;;;;;;;20.10;100.00;98856.38;4898983;29;20166;-83
2022/08/24 03:16:12;;;;;;;24.63;16.47;;;;;;;20.25;100.00;98914.59;4899204;29;20177;-81
2022/08/24 03:18:38;;;;;;;27.10;16.67;;;;;;;19.40;100.00;98787.16;4899762;29;20225;-82
2022/08/24 03:21:04;;;;;;;26.43;16.83;;;;;;;18.46;100.00;98621.31;4898919;29;20284;-83
2022/08/24 03:23:29;;;;;;;29.33;16.53;;;;;;;19.50;100.00;98808.56;4903823;29;20299;-82
2022/08/24 03:25:55;;;;;;;27.57;15.97;;;;;;;18.07;100.00;98574.31;4905001;29;20215;-83
2022/08/24 03:28:22;;;;;;;28.47;16.53;;;;;;;19.71;100.00;98839.31;4898879;29;20174;-82
2022/08/24 03:30:48;;;;;;;25.13;16.43;;;;;;;20.16;100.00;98920.56;4881877;29;20269;-83
2022/08/24 03:33:15;;;;;;;27.30;16.00;;;;;;;20.14;100.00;98917.16;4898583;29;20171;-83
2022/08/24 03:35:40;;;;;;;30.77;16.73;;;;;;;18.83;100.00;98699.94;4898431;29;20189;-83
2022/08/24 03:38:06;;;;;;;29.63;16.97;;;;;;;20.11;100.00;98917.16;4898237;29;20203;-82
2022/08/24 03:40:32;;;;;;;31.63;17.23;;;;;;;19.70;100.00;98841.88;4897124;29;20167;-83
2022/08/24 03:42:58;;;;;;;33.20;17.23;;;;;;;20.26;100.00;98922.31;4898513;29;20598;-83
2022/08/24 03:45:24;;;;;;;27.00;16.70;;;;;;;20.15;100.00;98893.19;4898323;29;20186;-82
2022/08/24 03:47:50;;;;;;;28.97;16.67;;;;;;;19.34;100.00;98756.31;4898198;29;20179;-81
2022/08/24 03:50:15;;;;;;;27.97;17.43;;;;;;;17.90;100.00;98521.38;4898333;29;20285;-83
2022/08/24 03:52:40;;;;;;;26.27;17.03;;;;;;;18.03;100.00;98538.44;4897916;29;20195;-82
2022/08/24 03:55:07;;;;;;;27.20;18.17;;;;;;;20.33;100.00;98916.28;4897818;29;20722;-82
2022/08/24 03:57:33;;;;;;;28.30;17.00;;;;;;;20.35;100.00;98919.75;4897598;29;20221;-83
2022/08/24 04:00:00;;;;;;;33.80;17.90;;;;;;;19.86;100.00;98833.31;4897828;29;20631;-83
2022/08/24 04:02:26;;;;;;;27.00;17.37;;;;;;;20.12;100.00;98871.75;4898092;29;20171;-83
2022/08/24 04:04:51;;;;;;;28.53;16.97;;;;;;;19.39;100.00;98749.50;4897348;29;20178;-84
2022/08/24 04:07:17;;;;;;;27.63;17.63;;;;;;;20.53;100.00;98918.78;4897718;29;20234;-82
2022/08/24 04:09:42;;;;;;;28.13;17.30;;;;;;;20.26;100.00;98886.34;4897658;29;20655;-80
2022/08/24 04:12:08;;;;;;;30.03;18.23;;;;;;;20.45;100.00;98923.13;4897560;29;20624;-81
2022/08/24 04:14:34;;;;;;;31.73;17.70;;;;;;;19.90;100.00;98845.28;4897430;29;20674;-81
2022/08/24 04:16:59;;;;;;;26.27;17.00;;;;;;;20.48;100.00;98917.97;4897404;29;20254;-81
2022/08/24 04:19:26;;;;;;;26.43;16.63;;;;;;;20.12;100.00;98851.22;4897685;29;20202;-81
2022/08/24 04:21:52;;;;;;;24.03;16.27;;;;;;;20.61;100.00;98922.19;4897504;29;20248;-81
2022/08/24 04:24:18;;;;;;;26.63;16.93;;;;;;;20.71;100.00;98926.44;4897460;29;20175;-81
2022/08/24 04:26:44;;;;;;;26.23;16.53;;;;;;;20.67;100.00;98926.47;4869010;29;20257;-80
2022/08/24 04:29:10;;;;;;;27.03;17.80;;;;;;;20.55;100.00;98881.91;4894867;29;20678;-84
2022/08/24 04:31:40;;;;;;;26.27;17.40;;;;;;;20.17;100.00;98803.22;4894686;29;20182;-84
2022/08/24 04:34:07;;;;;;;28.53;17.50;;;;;;;18.74;100.00;98585.41;4894915;29;20194;-83
2022/08/24 04:36:33;;;;;;;27.03;17.63;;;;;;;20.47;100.00;98929.97;4880634;29;20198;-83
2022/08/24 04:38:59;;;;;;;26.50;17.53;;;;;;;20.36;100.00;98934.28;4896364;29;20222;-84
2022/08/24 04:41:25;;;;;;;27.33;17.47;;;;;;;17.54;100.00;98482.09;4896609;29;20187;-85
2022/08/24 04:43:50;;;;;;;25.13;17.73;;;;;;;19.62;100.00;98874.44;4896561;29;20190;-82
2022/08/24 04:46:18;;;;;;;27.10;17.43;;;;;;;20.00;100.00;98909.47;4896295;29;20655;-83
2022/08/24 04:48:45;;;;;;;26.63;17.80;;;;;;;18.57;100.00;98665.78;4875766;29;20581;-84
2022/08/24 04:51:13;;;;;;;26.77;17.50;;;;;;;19.95;100.00;98864.97;4883793;29;20210;-84
2022/08/24 04:53:39;;;;;;;28.67;18.07;;;;;;;19.43;100.00;98742.66;4895590;29;20202;-83
2022/08/24 04:56:10;;;;;;;31.53;18.37;;;;;;;20.64;100.00;98911.03;4895867;29;20186;-84
2022/08/24 04:58:36;;;;;;;26.13;18.00;;;;;;;19.86;100.00;98817.91;4895444;29;20230;-84
2022/08/24 05:01:06;;;;;;;27.63;17.77;;;;;;;19.61;100.00;98775.16;4895827;29;20270;-83
2022/08/24 05:03:32;;;;;;;27.97;18.43;;;;;;;20.81;100.00;98946.13;4895879;29;20310;-83
2022/08/24 05:05:57;;;;;;;28.13;18.07;;;;;;;18.42;100.00;98569.19;4895923;29;20594;-84
2022/08/24 05:08:25;;;;;;;30.27;21.43;;;;;;;20.36;100.00;98831.44;4895180;29;20190;-83
2022/08/24 05:10:51;;;;;;;39.77;29.40;;;;;;;20.65;100.00;98895.59;4895041;29;20265;-83
2022/08/24 05:13:16;;;;;;;32.47;22.70;;;;;;;19.97;100.00;98719.34;4896215;29;20265;-83
2022/08/24 05:15:45;;;;;;;28.73;19.80;;;;;;;20.65;100.00;98823.59;4895807;29;20186;-82
2022/08/24 05:18:12;;;;;;;25.73;17.20;;;;;;;19.43;100.00;98669.06;4895429;29;20218;-83
2022/08/24 05:20:45;;;;;;;24.43;16.27;;;;;;;19.95;100.00;98794.72;4895099;29;20317;-82
2022/08/24 05:23:12;;;;;;;25.83;17.43;;;;;;;21.11;100.00;98951.16;4895542;29;20699;-83
2022/08/24 05:25:39;;;;;;;25.40;17.80;;;;;;;21.11;100.00;98947.72;4869950;29;20244;-82
2022/08/24 05:28:05;;;;;;;25.87;17.20;;;;;;;20.94;100.00;98895.44;4894922;29;20229;-84
2022/08/24 05:30:31;;;;;;;28.40;18.10;;;;;;;18.37;100.00;98496.59;4894488;29;20218;-82
2022/08/24 05:32:56;;;;;;;33.47;19.30;;;;;;;21.20;100.00;98946.81;4895608;29;20191;-82
2022/08/24 05:35:22;;;;;;;26.77;17.60;;;;;;;17.94;100.00;98426.59;4895181;29;20190;-83
2022/08/24 05:37:47;;;;;;;27.27;18.63;;;;;;;20.81;100.00;98907.53;4895105;29;20186;-82
2022/08/24 05:40:15;;;;;;;27.10;18.00;;;;;;;20.65;100.00;98897.31;4878040;29;20953;-82
2022/08/24 05:42:41;;;;;;;30.30;19.33;;;;;;;20.30;100.00;98822.91;4894845;29;20190;-82
2022/08/24 05:45:06;;;;;;;27.60;18.17;;;;;;;20.00;100.00;98765.59;4895190;29;20186;-83
2022/08/24 05:47:33;;;;;;;26.37;17.40;;;;;;;21.16;100.00;98939.09;4878199;29;20194;-83
2022/08/24 05:49:59;;;;;;;27.83;18.13;;;;;;;20.92;100.00;98905.75;4895126;29;20204;-82
2022/08/24 05:52:25;;;;;;;26.53;18.10;;;;;;;21.21;100.00;98926.19;4894839;29;20190;-85
2022/08/24 05:54:57;;;;;;;29.27;18.43;;;;;;;20.32;100.00;98752.63;4895205;29;20281;-82
2022/08/24 05:57:25;;;;;;;28.97;18.50;;;;;;;21.51;100.00;98953.44;4894304;29;20190;-83
2022/08/24 05:59:51;;;;;;;28.10;17.93;;;;;;;21.02;100.00;98853.34;4894446;29;20214;-84
2022/08/24 06:02:17;;;;;;;29.57;17.47;;;;;;;21.76;100.00;98929.22;4894008;29;20278;-78
2022/08/24 06:04:43;;;;;;;28.90;17.43;;;;;;;21.22;100.00;98873.84;4894915;29;20522;-78
2022/08/24 06:07:10;;;;;;;28.37;18.50;;;;;;;20.29;100.00;98716.66;4895815;29;20174;-78
2022/08/24 06:09:36;;;;;;;30.30;18.50;;;;;;;20.99;100.00;98816.47;4895488;29;20214;-79
2022/08/24 06:12:02;;;;;;;30.53;19.23;;;;;;;21.88;100.00;98954.06;4895968;29;20251;-79
2022/08/24 06:14:27;;;;;;;27.00;18.53;;;;;;;22.17;100.00;98957.22;4895937;29;20171;-79
2022/08/24 06:16:53;;;;;;;28.73;18.53;;;;;;;22.39;100.00;98948.38;4878943;29;20651;-80
2022/08/24 06:19:18;;;;;;;28.60;18.90;;;;;;;22.54;100.00;98904.38;4895468;29;20198;-79
2022/08/24 06:21:46;;;;;;;27.90;18.77;;;;;;;22.22;100.00;98853.13;4895806;29;20174;-79
2022/08/24 06:24:14;;;;;;;23.93;17.53;;;;;;;23.11;100.00;98962.16;4896817;29;20174;-78
2022/08/24 06:29:24;;;;;;;24.37;16.60;;;;;;;23.03;100.00;98914.06;4896439;29;20246;-79
2022/08/24 06:31:49;;;;;;;25.43;17.37;;;;;;;23.38;100.00;98946.28;4895801;29;20366;-78
2022/08/24 06:34:18;;;;;;;26.80;16.23;;;;;;;23.56;100.00;98968.44;4878829;29;20210;-80
2022/08/24 06:36:44;;;;;;;26.10;16.07;;;;;;;23.72;100.00;98956.97;4895596;29;20271;-78
2022/08/24 06:39:09;;;;;;;25.13;15.80;;;;;;;23.21;100.00;98908.66;4895328;29;20284;-79
2022/08/24 06:41:36;;;;;;;23.80;15.57;;;;;;;23.41;100.00;98915.25;4896182;29;20167;-79
2022/08/24 06:44:02;;;;;;;21.00;14.37;;;;;;;23.95;100.00;98967.78;4896106;29;20246;-78
2022/08/24 06:46:28;;;;;;;20.03;13.87;;;;;;;24.11;100.00;98975.31;4895558;29;20186;-78
2022/08/24 06:48:53;;;;;;;18.03;13.27;;;;;;;23.78;100.00;98941.38;4895755;29;20511;-78
2022/08/24 06:51:21;;;;;;;16.83;13.30;;;;;;;23.99;100.00;98974.63;4895433;29;20656;-78
2022/08/24 06:53:47;;;;;;;19.37;13.10;;;;;;;23.96;100.00;98968.63;4895443;29;20611;-78
2022/08/24 06:56:13;;;;;;;17.20;12.50;;;;;;;23.62;100.00;98908.91;4895434;29;20570;-79
2022/08/24 06:58:39;;;;;;;22.03;12.40;;;;;;;23.63;100.00;98975.19;4895488;29;20231;-80
2022/08/24 07:01:16;;;;;;;18.07;12.30;;;;;;;22.03;100.00;98753.69;4895576;29;20179;-78
2022/08/24 07:03:43;;;;;;;20.80;12.63;;;;;;;23.06;100.00;98898.53;4895489;29;20169;-79
2022/08/24 07:06:09;;;;;;;19.83;13.00;;;;;;;23.28;100.00;98912.84;4895207;29;20182;-79
2022/08/24 07:08:35;;;;;;;18.17;13.53;;;;;;;23.33;100.00;98929.97;4895690;29;20177;-78
2022/08/24 07:11:01;;;;;;;21.17;13.40;;;;;;;24.05;100.00;98968.47;4895430;29;20175;-79
2022/08/24 07:13:28;;;;;;;17.40;12.93;;;;;;;24.16;100.00;98932.97;4895788;29;20174;-78
2022/08/24 07:15:54;;;;;;;20.50;13.43;;;;;;;24.60;100.00;98976.97;4897019;29;20167;-78
2022/08/24 07:18:19;;;;;;;18.77;12.83;;;;;;;24.00;100.00;98792.72;4898674;29;20685;-78
2022/08/24 07:20:46;;;;;;;20.83;12.80;;;;;;;25.11;100.00;98949.16;4898364;29;20604;-79
2022/08/24 07:23:13;;;;;;;18.67;12.77;;;;;;;25.31;100.00;98981.56;4898171;29;20559;-79
2022/08/24 07:25:40;;;;;;;20.23;13.07;;;;;;;24.99;100.00;98883.84;4898664;29;20545;-79
2022/08/24 07:28:05;;;;;;;16.30;12.53;;;;;;;24.38;100.00;98799.72;4898756;29;20168;-79
2022/08/24 07:30:31;;;;;;;18.30;12.25;;;;;;;24.95;100.00;98870.09;4898406;29;20183;-79
2022/08/24 07:32:57;;;;;;;23.38;13.05;;;;;;;26.11;100.00;98977.06;4898383;29;20256;-79
2022/08/24 07:35:28;;;;;;;16.25;12.38;;;;;;;25.91;100.00;98977.56;4898183;29;20323;-79
2022/08/24 07:37:55;;;;;;;16.55;12.15;;;;;;;26.21;100.00;98978.56;4897983;29;20713;-78
2022/08/24 07:40:24;;;;;;;18.00;11.65;;;;;;;25.64;100.00;98970.44;4898344;29;20225;-78
2022/08/24 07:42:51;;;;;;;21.00;12.88;;;;;;;26.07;100.00;98985.84;4898065;29;20164;-78
2022/08/24 07:45:17;;;;;;;19.75;12.15;;;;;;;25.41;100.00;98915.69;4879256;29;20166;-79
2022/08/24 07:47:43;;;;;;;19.55;10.77;;;;;;;24.99;100.00;98832.88;4879278;29;20264;-79
2022/08/24 07:50:10;;;;;;;14.43;9.80;;;;;;;24.88;100.00;98899.63;4879709;29;20152;-79
2022/08/24 07:52:36;;;;;;;15.10;10.98;;;;;;;25.24;100.00;98984.28;4890423;29;20179;-79
2022/08/24 07:55:02;;;;;;;16.10;10.90;;;;;;;25.06;100.00;98982.09;4897889;29;20419;-78
2022/08/24 07:57:27;;;;;;;13.90;10.30;;;;;;;25.26;100.00;98944.53;4897737;29;20232;-79
2022/08/24 07:59:53;;;;;;;15.27;10.18;;;;;;;24.43;100.00;98738.34;4897697;29;20212;-80
2022/08/24 08:02:18;;;;;;;17.52;10.32;;;;;;;24.63;100.00;98748.25;4897698;29;20171;-79
2022/08/24 08:04:44;;;;;;;14.35;10.13;;;;;;;26.43;100.00;98997.00;4897456;29;20175;-79
2022/08/24 08:07:09;;;;;;;21.02;10.82;;;;;;;25.85;100.00;98884.31;4897922;29;20169;-78
2022/08/24 08:09:38;;;;;;;17.00;10.52;;;;;;;25.94;80.63;98865.94;4897458;29;20162;-78
2022/08/24 08:12:03;;;;;;;16.52;10.77;;;;;;;26.58;79.67;98947.28;4879048;29;20672;-78
2022/08/24 08:14:29;;;;;;;14.13;9.85;;;;;;;27.15;77.02;99005.38;4879012;29;20205;-78
2022/08/24 08:16:55;;;;;;;14.35;9.90;;;;;;;27.25;76.51;99003.38;4878726;29;20646;-79
2022/08/24 08:19:20;;;;;;;13.82;9.70;;;;;;;25.89;77.21;98841.00;4877315;29;20291;-79
2022/08/24 08:24:35;;;;;;;12.88;10.10;;;;;;;25.84;80.30;98946.63;4897771;29;20697;-79
2022/08/24 08:27:01;;;;;;;15.02;10.68;;;;;;;25.91;81.88;99011.28;4896771;29;20169;-78
2022/08/24 08:29:27;;;;;;;13.65;10.15;;;;;;;25.48;82.30;98932.81;4897214;29;20158;-79
2022/08/24 08:31:53;;;;;;;16.38;10.73;;;;;;;24.03;82.24;98670.25;4896766;29;20186;-77
2022/08/24 08:34:19;;;;;;;15.73;11.05;;;;;;;26.23;81.11;99003.56;4897232;29;20639;-79
2022/08/24 08:36:44;;;;;;;13.88;10.60;;;;;;;26.21;81.05;99002.78;4897429;29;20254;-79
2022/08/24 08:39:13;;;;;;;15.43;11.00;;;;;;;25.04;81.65;98853.50;4896872;29;20619;-79
2022/08/24 08:41:57;;;;;;;14.43;10.50;;;;;;;26.20;79.40;98992.44;4896640;29;20622;-79
2022/08/24 08:44:34;;;;;;;18.75;11.10;;;;;;;26.23;79.67;98995.78;4897198;29;20207;-78
2022/08/24 08:47:32;;;;;;;16.23;10.35;;;;;;;26.24;79.28;98962.91;4897004;29;20618;-78
2022/08/24 08:50:12;;;;;;;15.77;10.93;;;;;;;26.41;79.84;99006.59;4820815;29;20206;-78
2022/08/24 08:52:43;;;;;;;15.15;10.48;;;;;;;25.94;81.28;99003.44;4810532;29;20227;-77
2022/08/24 08:55:47;;;;;;;23.83;10.77;;;;;;;26.01;82.06;98985.97;4821123;29;20201;-78
2022/08/24 08:58:13;;;;;;;14.75;10.93;;;;;;;26.52;81.98;98986.38;4766641;30;20245;-78
2022/08/24 09:01:13;;;;;;;16.92;10.55;;;;;;;26.46;80.84;98995.19;4766503;30;20211;-78
2022/08/24 09:04:06;;;;;;;15.98;11.68;;;;;;;26.58;80.42;98988.81;4766810;30;20284;-79
2022/08/24 09:06:31;;;;;;;13.95;10.32;;;;;;;26.61;78.38;98992.19;4766859;30;20203;-78
2022/08/24 09:09:05;;;;;;;15.45;10.60;;;;;;;27.11;76.24;98993.41;4766683;30;20575;-80
2022/08/24 09:11:56;;;;;;;12.18;10.35;;;;;;;27.41;74.82;98995.06;4766246;30;20375;-80
2022/08/24 09:14:30;;;;;;;13.43;9.70;;;;;;;27.53;74.25;98992.09;4751645;30;20201;-77
2022/08/24 09:17:33;;;;;;;14.23;10.18;;;;;;;27.44;74.03;98994.16;4751662;30;20220;-77
2022/08/24 09:20:31;;;;;;;14.40;10.50;;;;;;;28.34;72.23;98989.47;4766107;30;20281;-78
2022/08/24 09:23:31;;;;;;;13.02;9.65;;;;;;;28.07;70.48;98997.31;4713691;30;20213;-78
2022/08/24 09:26:19;;;;;;;12.68;9.68;;;;;;;27.70;70.86;98995.94;4663738;30;20578;-79
2022/08/24 09:29:08;;;;;;;11.07;8.57;;;;;;;27.84;70.17;98994.59;4697499;30;20758;-79
2022/08/24 09:31:40;;;;;;;12.20;8.68;;;;;;;28.32;66.38;99001.72;4679822;30;20309;-78
2022/08/24 09:34:30;;;;;;;12.10;8.63;;;;;;;28.55;66.34;98920.97;4679946;30;20333;-78
2022/08/24 09:37:23;;;;;;;11.77;9.13;;;;;;;29.26;67.46;98986.13;4678803;30;20199;-78
2022/08/24 09:40:00;;;;;;;12.10;9.30;;;;;;;29.55;67.17;98990.22;4687972;30;20227;-78
2022/08/24 09:42:37;;;;;;;13.00;9.10;;;;;;;29.87;65.55;98986.31;4695955;30;20209;-79
2022/08/24 09:45:40;;;;;;;11.85;9.60;;;;;;;30.37;64.13;98977.25;4695794;30;20228;-80
2022/08/24 09:48:08;;;;;;;11.45;8.43;;;;;;;29.61;62.75;98969.94;4695951;30;20170;-79
2022/08/24 09:50:57;;;;;;;10.25;8.68;;;;;;;29.86;63.41;98956.75;4700353;30;20207;-78
2022/08/24 09:53:32;;;;;;;12.63;8.95;;;;;;;29.67;64.73;98961.84;4713286;30;20169;-79
2022/08/24 09:56:31;;;;;;;9.82;8.57;;;;;;;29.87;63.11;98952.41;4713467;30;20223;-78
2022/08/24 09:58:59;;;;;;;13.63;8.20;;;;;;;30.04;61.17;98948.19;4730929;30;20291;-80
2022/08/24 10:01:53;;;;;;;12.23;8.52;;;;;;;30.08;61.34;98951.50;4730523;30;20199;-79
2022/08/24 10:04:37;;;;;;;10.93;8.40;;;;;;;30.05;61.79;98943.81;4766152;30;20187;-79
2022/08/24 10:07:22;;;;;;;9.45;7.15;;;;;;;30.00;60.76;98948.34;4765910;30;20180;-79
2022/08/24 10:09:51;;;;;;;13.10;7.93;;;;;;;30.46;60.42;98945.53;4883726;29;20183;-78
2022/08/24 10:12:41;;;;;;;9.90;7.68;;;;;;;30.05;58.73;98834.97;4877228;29;20186;-79
2022/08/24 10:15:07;;;;;;;17.35;7.95;;;;;;;30.41;59.05;98931.78;4877542;29;20254;-79
2022/08/24 10:17:35;;;;;;;9.02;6.85;;;;;;;30.46;58.04;98919.38;4877423;29;20258;-79
2022/08/24 10:20:09;;;;;;;11.60;7.28;;;;;;;29.39;60.26;98861.31;4890136;29;20214;-78
2022/08/24 10:23:11;;;;;;;13.93;6.97;;;;;;;30.23;58.23;98906.44;4895833;29;20177;-80
2022/08/24 10:25:51;;;;;;;9.45;6.70;;;;;;;30.21;58.13;98879.56;4895593;29;20603;-79
2022/08/24 10:28:17;;;;;;;10.18;7.22;;;;;;;29.95;59.59;98911.16;4887127;29;20189;-78
2022/08/24 10:31:02;;;;;;;12.48;7.03;;;;;;;29.39;60.38;98846.50;4877097;29;20168;-79
2022/08/24 10:33:35;;;;;;;10.60;6.78;;;;;;;28.75;60.85;98862.97;4877289;29;20555;-80
2022/08/24 10:36:34;;;;;;;10.07;7.20;;;;;;;29.65;59.28;98895.00;4877126;29;20171;-79
2022/08/24 10:45:49;;;;;;;13.05;6.57;;;;;;;30.37;58.19;98914.56;4895609;29;20192;-78
2022/08/24 10:48:30;;;;;;;9.77;6.63;;;;;;;30.38;57.98;98903.22;4887482;29;20182;-78
2022/08/24 10:51:07;;;;;;;10.82;6.60;;;;;;;30.26;58.46;98899.34;4879343;29;20169;-79
2022/08/24 10:53:33;;;;;;;10.13;6.38;;;;;;;30.76;57.01;98894.47;4880180;29;20585;-80
2022/08/24 10:56:15;;;;;;;11.80;6.63;;;;;;;31.34;56.60;98895.19;4880621;29;20174;-80
2022/08/24 10:58:44;;;;;;;11.95;6.65;;;;;;;31.45;55.33;98897.31;4890625;29;20237;-79
2022/08/24 11:01:25;;;;;;;12.40;6.82;;;;;;;30.88;57.40;98891.28;4898971;29;20169;-79
2022/08/24 11:04:06;;;;;;;13.48;7.05;;;;;;;31.13;56.19;98895.38;4898749;29;20603;-78
2022/08/24 11:07:01;;;;;;;16.98;9.30;;;;;;;30.93;56.25;98855.31;4891603;29;20491;-79
2022/08/24 11:10:01;;;;;;;11.45;6.90;;;;;;;30.91;56.81;98885.91;4880414;29;20179;-79
2022/08/24 11:12:42;;;;;;;10.15;6.43;;;;;;;30.36;57.93;98855.34;4879650;29;20198;-79
2022/08/24 11:15:22;;;;;;;15.52;6.60;;;;;;;30.73;57.75;98876.31;4879985;29;20170;-80
2022/08/24 11:17:57;;;;;;;12.95;6.65;;;;;;;31.00;57.29;98881.19;4895958;29;20245;-79
2022/08/24 11:20:33;;;;;;;10.63;6.65;;;;;;;30.14;58.45;98829.34;4898596;29;20175;-79
2022/08/24 11:23:07;;;;;;;10.88;6.50;;;;;;;30.37;58.69;98852.72;4898919;29;20166;-82
2022/08/24 11:25:36;;;;;;;14.05;6.43;;;;;;;30.83;57.97;98876.72;4898562;29;20174;-82
2022/08/24 11:28:26;;;;;;;13.57;6.00;;;;;;;30.94;56.16;98864.88;4880203;29;20252;-80
2022/08/24 11:30:52;;;;;;;11.23;6.50;;;;;;;31.13;56.36;98874.44;4879069;29;20202;-80
2022/08/24 11:33:30;;;;;;;12.88;6.13;;;;;;;30.96;56.62;98870.88;4879868;29;20785;-80
2022/08/24 11:35:56;;;;;;;16.75;7.10;;;;;;;30.44;56.13;98771.44;4881245;29;20266;-80
2022/08/24 11:38:30;;;;;;;14.63;6.60;;;;;;;31.75;55.20;98874.03;4898142;29;20198;-80
2022/08/24 11:41:18;;;;;;;16.77;6.63;;;;;;;31.96;55.33;98876.41;4898336;29;20167;-79
2022/08/24 11:44:02;;;;;;;16.65;7.50;;;;;;;32.22;54.41;98871.63;4898219;29;20282;-80